Time;durP1;ratioP1;P1;durP2;ratioP2;P2;SDS_P1;SDS_P2;PMS_P1;PMS_P2;Temp;Humidity;BMP_temperature;BMP_pressure;BME280_temperature;BME280_humidity;BME280_pressure;Samples;Min_cycle;Max_cycle;Signal;HPM_P1;HPM_P2
2021/03/24 00:02:05;;;;;;;21.97;14.33;;;2.60;99.90;;;;;;5091916;28;20215;-67
2021/03/24 00:04:31;;;;;;;25.10;13.83;;;2.50;99.90;;;;;;5091389;28;20676;-67
2021/03/24 00:06:57;;;;;;;21.90;13.60;;;2.50;99.90;;;;;;5092464;28;20208;-67
2021/03/24 00:09:24;;;;;;;18.73;12.87;;;2.60;99.90;;;;;;5092507;28;20212;-67
2021/03/24 00:11:50;;;;;;;20.70;12.77;;;2.50;99.90;;;;;;5092766;28;20215;-67
2021/03/24 00:14:17;;;;;;;21.73;13.80;;;2.40;99.90;;;;;;5092231;28;20725;-67
2021/03/24 00:16:43;;;;;;;19.77;13.40;;;2.30;99.90;;;;;;5091640;28;20675;-67
2021/03/24 00:19:10;;;;;;;22.57;14.13;;;2.30;99.90;;;;;;5091547;28;20251;-67
2021/03/24 00:21:37;;;;;;;18.47;12.60;;;2.30;99.90;;;;;;5092111;28;20215;-67
2021/03/24 00:24:03;;;;;;;22.33;13.43;;;2.30;99.90;;;;;;5092846;28;20683;-67
2021/03/24 00:26:30;;;;;;;20.67;13.57;;;2.30;99.90;;;;;;5093153;28;20210;-67
2021/03/24 00:28:56;;;;;;;21.57;13.37;;;2.40;99.90;;;;;;5092215;28;20243;-66
2021/03/24 00:31:23;;;;;;;21.93;13.87;;;2.40;99.90;;;;;;5092604;28;20265;-67
2021/03/24 00:33:49;;;;;;;20.43;12.73;;;2.30;99.90;;;;;;5092587;28;20231;-67
2021/03/24 00:36:16;;;;;;;21.37;13.37;;;2.30;99.90;;;;;;5092172;28;20849;-67
2021/03/24 00:38:42;;;;;;;19.63;12.73;;;2.30;99.90;;;;;;5091471;28;20227;-67
2021/03/24 00:41:09;;;;;;;19.80;12.73;;;2.30;99.90;;;;;;5091478;28;20215;-67
2021/03/24 00:43:35;;;;;;;16.67;11.63;;;2.20;99.90;;;;;;5090836;28;20200;-66
2021/03/24 00:46:01;;;;;;;21.03;13.00;;;2.10;99.90;;;;;;5091566;28;20209;-66
2021/03/24 00:48:30;;;;;;;18.70;12.47;;;2.20;99.90;;;;;;5090782;28;20236;-68
2021/03/24 00:50:58;;;;;;;18.10;12.13;;;2.20;99.90;;;;;;5091095;28;20207;-66
2021/03/24 00:53:25;;;;;;;20.03;12.77;;;2.30;99.90;;;;;;5090807;28;20212;-68
2021/03/24 00:55:52;;;;;;;24.67;14.70;;;2.20;99.90;;;;;;5091760;28;20200;-68
2021/03/24 00:58:20;;;;;;;22.20;13.77;;;2.30;99.90;;;;;;5090949;28;20307;-68
2021/03/24 01:00:47;;;;;;;20.63;13.27;;;2.20;99.90;;;;;;5091409;28;20204;-68
2021/03/24 01:03:15;;;;;;;21.73;13.40;;;2.20;99.90;;;;;;5091198;28;20212;-68
2021/03/24 01:05:42;;;;;;;22.77;13.10;;;2.20;99.90;;;;;;5090936;28;20675;-68
2021/03/24 01:08:11;;;;;;;18.53;12.90;;;2.10;99.90;;;;;;5090887;28;20224;-68
2021/03/24 01:10:39;;;;;;;22.67;12.30;;;2.00;99.90;;;;;;5091042;28;20204;-68
2021/03/24 01:13:06;;;;;;;21.43;14.07;;;2.00;99.90;;;;;;5090968;28;20207;-68
2021/03/24 01:15:34;;;;;;;18.07;12.63;;;2.10;99.90;;;;;;5092203;28;20321;-68
2021/03/24 01:18:00;;;;;;;19.30;12.93;;;2.10;99.90;;;;;;5094620;28;20623;-68
2021/03/24 01:20:29;;;;;;;23.17;13.97;;;2.20;99.90;;;;;;5095039;28;20211;-68
2021/03/24 01:22:56;;;;;;;21.13;12.90;;;2.20;99.90;;;;;;5094857;28;20818;-68
2021/03/24 01:25:23;;;;;;;19.07;12.97;;;2.20;99.90;;;;;;5094482;28;20200;-68
2021/03/24 01:27:51;;;;;;;22.07;13.83;;;2.30;99.90;;;;;;5094714;28;20649;-68
2021/03/24 01:30:19;;;;;;;19.37;13.30;;;2.20;99.90;;;;;;5094869;28;20204;-68
2021/03/24 01:32:45;;;;;;;19.53;12.50;;;2.20;99.90;;;;;;5094757;28;20668;-68
2021/03/24 01:35:13;;;;;;;19.17;13.03;;;2.20;99.90;;;;;;5094527;28;20613;-68
2021/03/24 01:37:40;;;;;;;19.80;13.10;;;2.20;99.90;;;;;;5094733;28;20704;-68
2021/03/24 01:40:08;;;;;;;21.63;12.07;;;2.20;99.90;;;;;;5095223;28;20230;-68
2021/03/24 01:42:35;;;;;;;18.07;12.40;;;2.20;99.90;;;;;;5094981;28;20212;-68
2021/03/24 01:45:09;;;;;;;20.80;12.60;;;2.20;99.90;;;;;;5094546;28;20618;-68
2021/03/24 01:47:36;;;;;;;19.20;12.40;;;2.20;99.90;;;;;;5094804;28;20228;-68
2021/03/24 01:50:06;;;;;;;17.13;12.37;;;2.20;99.90;;;;;;5094418;28;20200;-68
2021/03/24 01:52:32;;;;;;;18.90;12.43;;;2.20;99.90;;;;;;5094023;28;20200;-68
2021/03/24 01:54:59;;;;;;;19.57;12.63;;;2.20;99.90;;;;;;5094115;28;20703;-68
2021/03/24 01:57:26;;;;;;;18.03;12.60;;;2.20;99.90;;;;;;5094890;28;20278;-68
2021/03/24 01:59:54;;;;;;;19.90;12.83;;;2.30;99.90;;;;;;5094472;28;20231;-68
2021/03/24 02:02:24;;;;;;;16.87;11.90;;;2.30;99.90;;;;;;5094636;28;20204;-68
2021/03/24 02:04:51;;;;;;;20.83;13.43;;;2.30;99.90;;;;;;5094391;28;20196;-68
2021/03/24 02:07:23;;;;;;;21.47;13.03;;;2.20;99.90;;;;;;5094255;28;20220;-68
2021/03/24 02:09:55;;;;;;;22.20;12.63;;;2.20;99.90;;;;;;5094474;28;20219;-67
2021/03/24 02:12:25;;;;;;;18.47;11.87;;;2.20;99.90;;;;;;5094136;28;20209;-68
2021/03/24 02:14:56;;;;;;;21.93;13.30;;;2.20;99.90;;;;;;5093882;28;20243;-68
2021/03/24 02:17:26;;;;;;;19.70;13.30;;;2.20;99.90;;;;;;5093845;28;20220;-68
2021/03/24 02:20:04;;;;;;;17.97;12.67;;;2.20;99.90;;;;;;5094062;28;20656;-68
2021/03/24 02:22:36;;;;;;;20.77;12.53;;;2.20;99.90;;;;;;5094216;28;20204;-68
2021/03/24 02:25:08;;;;;;;19.53;12.63;;;2.20;99.90;;;;;;5094460;28;20200;-68
2021/03/24 02:27:38;;;;;;;18.43;13.23;;;2.20;99.90;;;;;;5094102;28;20369;-68
2021/03/24 02:30:09;;;;;;;21.90;12.80;;;2.20;99.90;;;;;;5095034;28;20671;-68
2021/03/24 02:32:40;;;;;;;20.33;12.27;;;2.10;99.90;;;;;;5095458;28;20539;-67
2021/03/24 02:35:12;;;;;;;18.03;12.50;;;2.10;99.90;;;;;;5094313;28;20227;-68
2021/03/24 02:37:39;;;;;;;21.77;13.20;;;2.10;99.90;;;;;;5094066;28;20588;-68
2021/03/24 02:40:09;;;;;;;19.50;13.13;;;2.10;99.90;;;;;;5093923;28;20204;-68
2021/03/24 02:42:37;;;;;;;23.83;13.30;;;2.10;99.90;;;;;;5094513;28;20208;-68
2021/03/24 02:45:05;;;;;;;18.13;12.70;;;2.10;99.90;;;;;;5093835;28;20576;-69
2021/03/24 02:47:31;;;;;;;19.23;12.97;;;2.10;99.90;;;;;;5094507;28;20261;-69
2021/03/24 02:49:58;;;;;;;19.83;13.47;;;2.10;99.90;;;;;;5093976;28;20212;-68
2021/03/24 02:52:24;;;;;;;18.90;12.97;;;2.00;99.90;;;;;;5093793;28;20216;-69
2021/03/24 02:54:50;;;;;;;18.57;12.77;;;2.00;99.90;;;;;;5093516;28;20235;-69
2021/03/24 02:57:17;;;;;;;20.10;13.30;;;1.90;99.90;;;;;;5094302;28;20224;-68
2021/03/24 02:59:44;;;;;;;21.07;13.63;;;1.80;99.90;;;;;;5094434;28;20676;-69
2021/03/24 03:02:13;;;;;;;20.27;12.90;;;1.80;99.90;;;;;;5094495;28;20207;-68
2021/03/24 03:04:44;;;;;;;23.30;13.60;;;1.80;99.90;;;;;;5094107;28;20196;-67
2021/03/24 03:07:16;;;;;;;19.70;13.23;;;1.70;99.90;;;;;;5093990;28;20209;-67
2021/03/24 03:09:49;;;;;;;22.80;13.37;;;1.70;99.90;;;;;;5094401;28;20262;-69
2021/03/24 03:12:23;;;;;;;21.10;13.63;;;1.70;99.90;;;;;;5094121;28;20584;-68
2021/03/24 03:14:57;;;;;;;22.97;13.50;;;1.70;99.90;;;;;;5094088;28;20224;-68
2021/03/24 03:17:29;;;;;;;21.90;13.27;;;1.70;99.90;;;;;;5093818;28;20231;-69
2021/03/24 03:19:59;;;;;;;24.10;13.33;;;1.70;99.90;;;;;;5093510;28;20606;-69
2021/03/24 03:22:30;;;;;;;21.20;12.93;;;1.70;99.90;;;;;;5093938;28;20577;-68
2021/03/24 03:24:59;;;;;;;23.97;14.40;;;1.60;99.90;;;;;;5093730;28;20196;-69
2021/03/24 03:27:29;;;;;;;19.90;13.27;;;1.60;99.90;;;;;;5093543;28;20224;-69
2021/03/24 03:29:59;;;;;;;21.83;13.77;;;1.60;99.90;;;;;;5093470;28;20208;-68
2021/03/24 03:32:30;;;;;;;24.00;14.23;;;1.60;99.90;;;;;;5094004;28;20204;-67
2021/03/24 03:35:02;;;;;;;22.90;14.50;;;1.60;99.90;;;;;;5094105;28;20227;-67
2021/03/24 03:37:29;;;;;;;22.20;14.03;;;1.60;99.90;;;;;;5093636;28;20231;-69
2021/03/24 03:39:56;;;;;;;21.30;13.83;;;1.60;99.90;;;;;;5094287;28;20257;-70
2021/03/24 03:42:24;;;;;;;23.90;14.37;;;1.70;99.90;;;;;;5095197;28;20223;-68
2021/03/24 03:44:51;;;;;;;23.03;14.13;;;1.70;99.90;;;;;;5094141;28;20196;-68
2021/03/24 03:47:18;;;;;;;22.93;13.67;;;1.70;99.90;;;;;;5094697;28;20228;-69
2021/03/24 03:49:44;;;;;;;22.60;14.23;;;1.60;99.90;;;;;;5094659;28;20219;-67
2021/03/24 03:52:22;;;;;;;18.83;13.40;;;1.40;99.90;;;;;;5094567;28;20200;-67
2021/03/24 03:54:54;;;;;;;21.03;13.33;;;1.40;99.90;;;;;;5094805;28;20273;-67
2021/03/24 03:57:28;;;;;;;21.13;13.50;;;1.40;99.90;;;;;;5094003;28;20232;-70
2021/03/24 03:59:58;;;;;;;22.40;14.33;;;1.30;99.90;;;;;;5093017;28;20214;-68
2021/03/24 04:02:31;;;;;;;23.30;13.20;;;1.30;99.90;;;;;;5092808;28;20208;-67
2021/03/24 04:05:04;;;;;;;23.13;14.17;;;1.30;99.90;;;;;;5092582;28;20326;-67
2021/03/24 04:07:35;;;;;;;22.50;13.77;;;1.20;99.90;;;;;;5092736;28;20228;-68
2021/03/24 04:10:03;;;;;;;23.77;14.03;;;1.20;99.90;;;;;;5092620;28;20584;-69
2021/03/24 04:12:33;;;;;;;22.53;14.07;;;1.10;99.90;;;;;;5092986;28;20206;-68
2021/03/24 04:15:02;;;;;;;20.90;13.37;;;1.10;99.90;;;;;;5092739;28;20264;-68
2021/03/24 04:17:33;;;;;;;20.57;13.27;;;1.00;99.90;;;;;;5092755;28;20225;-68
2021/03/24 04:20:02;;;;;;;21.33;13.83;;;0.80;99.90;;;;;;5092245;28;20690;-69
2021/03/24 04:22:30;;;;;;;22.13;14.00;;;0.80;99.90;;;;;;5091913;28;20668;-67
2021/03/24 04:24:59;;;;;;;21.47;13.57;;;0.90;99.90;;;;;;5092149;28;20203;-68
2021/03/24 04:27:29;;;;;;;24.33;15.10;;;0.90;99.90;;;;;;5092144;28;20228;-68
2021/03/24 04:29:59;;;;;;;26.20;15.23;;;0.90;99.90;;;;;;5091659;28;20208;-67
2021/03/24 04:32:25;;;;;;;23.70;14.87;;;1.00;99.90;;;;;;5091509;28;20208;-69
2021/03/24 04:34:53;;;;;;;24.83;15.00;;;0.90;99.90;;;;;;5091186;28;20220;-69
2021/03/24 04:37:28;;;;;;;25.93;15.20;;;0.90;99.90;;;;;;5091672;28;20224;-68
2021/03/24 04:39:59;;;;;;;24.10;15.10;;;0.90;99.90;;;;;;5091438;28;20223;-69
2021/03/24 04:42:28;;;;;;;23.53;15.17;;;0.80;99.90;;;;;;5091976;28;20185;-69
2021/03/24 04:44:57;;;;;;;23.40;14.63;;;0.70;99.90;;;;;;5091196;28;20208;-68
2021/03/24 04:47:28;;;;;;;28.70;15.87;;;0.70;99.90;;;;;;5090916;28;20297;-68
2021/03/24 04:50:01;;;;;;;27.50;16.20;;;0.80;99.90;;;;;;5093234;28;20208;-68
2021/03/24 04:52:32;;;;;;;28.60;15.97;;;0.70;99.90;;;;;;5095574;28;20210;-68
2021/03/24 04:55:06;;;;;;;26.33;15.80;;;0.70;99.90;;;;;;5095404;28;20224;-68
2021/03/24 04:57:33;;;;;;;24.63;14.20;;;0.80;99.90;;;;;;5096786;28;20605;-70
2021/03/24 05:00:06;;;;;;;26.30;15.87;;;0.80;99.90;;;;;;5097311;28;20290;-68
2021/03/24 05:02:34;;;;;;;23.47;15.40;;;0.70;99.90;;;;;;5097425;28;20249;-70
2021/03/24 05:05:04;;;;;;;27.23;17.37;;;0.70;99.90;;;;;;5096966;28;20196;-67
2021/03/24 05:07:36;;;;;;;24.73;14.90;;;0.80;99.90;;;;;;5096717;28;20262;-68
2021/03/24 05:10:05;;;;;;;25.87;14.70;;;0.80;99.90;;;;;;5096631;28;20664;-68
2021/03/24 05:12:38;;;;;;;23.20;14.50;;;0.80;99.90;;;;;;5096880;28;20668;-68
2021/03/24 05:15:08;;;;;;;26.13;15.73;;;0.70;99.90;;;;;;5096754;28;20230;-68
2021/03/24 05:17:36;;;;;;;23.17;15.97;;;0.60;99.90;;;;;;5098819;28;20224;-70
2021/03/24 05:20:11;;;;;;;24.37;14.60;;;0.50;99.90;;;;;;5098098;28;20204;-68
2021/03/24 05:22:43;;;;;;;25.47;14.97;;;0.50;99.90;;;;;;5100112;28;20204;-69
2021/03/24 05:25:19;;;;;;;26.27;15.93;;;0.50;99.90;;;;;;5094987;28;20246;-69
2021/03/24 05:27:48;;;;;;;27.37;16.30;;;0.40;99.90;;;;;;5094663;28;20629;-68
2021/03/24 05:30:22;;;;;;;26.77;17.23;;;0.50;99.90;;;;;;5094736;28;20261;-68
2021/03/24 05:32:53;;;;;;;25.93;16.60;;;0.60;99.90;;;;;;5094607;28;20702;-68
2021/03/24 05:35:43;;;;;;;23.93;16.40;;;0.70;99.90;;;;;;5094227;28;20231;-68
2021/03/24 05:38:17;;;;;;;26.90;16.87;;;0.90;99.90;;;;;;5094479;28;20231;-70
2021/03/24 05:40:54;;;;;;;26.20;16.50;;;0.70;99.90;;;;;;5094322;28;20204;-68
2021/03/24 05:43:31;;;;;;;26.03;15.57;;;1.00;99.90;;;;;;5094369;28;20736;-68
2021/03/24 05:46:06;;;;;;;23.50;15.23;;;1.00;99.90;;;;;;5094365;28;20196;-68
2021/03/24 05:48:50;;;;;;;55.87;40.23;;;0.90;99.90;;;;;;5094116;28;20272;-68
2021/03/24 05:51:40;;;;;;;24.57;16.60;;;1.00;99.90;;;;;;5094083;28;20204;-68
2021/03/24 05:54:26;;;;;;;31.07;20.97;;;1.10;99.90;;;;;;5094323;28;20683;-70
2021/03/24 05:57:17;;;;;;;22.70;15.23;;;1.30;99.90;;;;;;5094325;28;20204;-68
2021/03/24 05:59:53;;;;;;;31.63;17.73;;;1.40;99.90;;;;;;5065647;28;20211;-68
2021/03/24 06:02:27;;;;;;;24.80;15.70;;;1.60;99.90;;;;;;5093321;28;20212;-70
2021/03/24 06:04:59;;;;;;;27.00;16.90;;;1.90;99.90;;;;;;5094496;28;20211;-68
2021/03/24 06:07:47;;;;;;;27.77;16.50;;;2.10;99.90;;;;;;5093887;28;20231;-70
2021/03/24 06:10:31;;;;;;;23.73;16.27;;;2.20;99.90;;;;;;5093949;28;20219;-68
2021/03/24 06:13:16;;;;;;;22.87;15.93;;;2.40;99.90;;;;;;5093780;28;20702;-69
2021/03/24 06:16:11;;;;;;;27.23;16.67;;;2.60;99.90;;;;;;5093832;28;20224;-69
2021/03/24 06:18:59;;;;;;;23.03;14.60;;;2.60;99.90;;;;;;5094184;28;20228;-68
2021/03/24 06:21:35;;;;;;;26.37;15.07;;;2.70;99.90;;;;;;5094395;28;20276;-70
2021/03/24 06:24:25;;;;;;;21.47;14.63;;;3.00;99.90;;;;;;5094309;28;20208;-68
2021/03/24 06:27:21;;;;;;;23.77;14.33;;;4.00;99.90;;;;;;5094424;28;20225;-68
2021/03/24 06:30:00;;;;;;;20.50;13.40;;;5.50;99.90;;;;;;5083518;28;20234;-68
2021/03/24 06:32:56;;;;;;;18.37;13.10;;;6.90;99.90;;;;;;5094153;28;20211;-70
2021/03/24 06:35:39;;;;;;;21.97;13.23;;;8.20;99.60;;;;;;5093770;28;20265;-70
2021/03/24 06:38:31;;;;;;;20.80;13.00;;;9.10;97.70;;;;;;5093849;28;20650;-68
2021/03/24 06:41:48;;;;;;;19.87;12.37;;;9.80;95.60;;;;;;5094328;28;20189;-68
2021/03/24 06:45:08;;;;;;;17.57;13.30;;;10.20;94.10;;;;;;5000393;28;20619;-68
2021/03/24 06:47:46;;;;;;;17.80;12.70;;;10.90;92.80;;;;;;4969378;28;20234;-69
2021/03/24 06:50:31;;;;;;;20.90;13.33;;;11.30;92.10;;;;;;5083674;28;20200;-69
2021/03/24 06:53:19;;;;;;;17.67;12.70;;;11.70;90.90;;;;;;5093512;28;20227;-71
2021/03/24 06:56:27;;;;;;;18.57;13.10;;;12.20;90.00;;;;;;5093280;28;20231;-70
2021/03/24 06:59:27;;;;;;;17.23;13.40;;;12.90;87.80;;;;;;5093854;28;20644;-70
2021/03/24 07:02:16;;;;;;;20.93;14.93;;;13.30;85.10;;;;;;5093591;28;20207;-70
2021/03/24 07:05:06;;;;;;;21.97;14.23;;;13.60;84.40;;;;;;5093478;28;20196;-70
2021/03/24 07:08:08;;;;;;;17.23;12.90;;;14.30;81.20;;;;;;5093641;28;20231;-73
2021/03/24 07:10:47;;;;;;;20.00;14.93;;;14.70;78.80;;;;;;5093427;28;20622;-70
2021/03/24 07:13:37;;;;;;;18.93;13.90;;;14.70;78.40;;;;;;5092854;28;20264;-70
2021/03/24 07:16:12;;;;;;;18.10;13.90;;;14.90;77.70;;;;;;5094036;28;20213;-70
2021/03/24 07:18:58;;;;;;;17.93;13.43;;;15.60;76.60;;;;;;5093408;28;20587;-73
2021/03/24 07:21:59;;;;;;;20.97;16.27;;;16.30;72.80;;;;;;5093609;28;20290;-70
2021/03/24 07:24:56;;;;;;;17.03;13.30;;;16.70;70.70;;;;;;5093902;28;20201;-70
2021/03/24 07:27:39;;;;;;;19.87;14.27;;;16.80;69.70;;;;;;5093616;28;20224;-69
2021/03/24 07:30:21;;;;;;;16.33;13.37;;;16.90;69.70;;;;;;5093479;28;20200;-70
2021/03/24 07:32:53;;;;;;;16.27;13.13;;;17.30;67.80;;;;;;5093226;28;20211;-71
2021/03/24 07:35:44;;;;;;;18.57;14.07;;;17.30;67.40;;;;;;5093345;28;20220;-69
2021/03/24 07:38:47;;;;;;;17.90;13.73;;;17.70;67.00;;;;;;5093197;28;20232;-70
2021/03/24 07:41:41;;;;;;;17.07;13.00;;;18.20;64.40;;;;;;5093039;28;20199;-70
2021/03/24 07:44:27;;;;;;;17.83;14.53;;;18.30;63.10;;;;;;5092834;28;20204;-70
2021/03/24 07:47:24;;;;;;;18.73;14.23;;;18.10;63.90;;;;;;5093005;28;20281;-69
2021/03/24 07:50:00;;;;;;;18.67;14.70;;;17.50;64.50;;;;;;5092872;28;20201;-69
2021/03/24 07:52:55;;;;;;;20.57;16.20;;;17.20;65.20;;;;;;5092900;28;20208;-69
2021/03/24 07:55:28;;;;;;;21.27;15.30;;;17.60;65.00;;;;;;5092356;28;20579;-73
2021/03/24 07:58:12;;;;;;;19.63;14.67;;;17.90;64.00;;;;;;5092901;28;20750;-70
2021/03/24 08:00:47;;;;;;;19.37;14.53;;;18.30;63.10;;;;;;5092782;28;20702;-71
2021/03/24 08:03:18;;;;;;;19.83;15.37;;;18.00;63.20;;;;;;5093185;28;20189;-70
2021/03/24 08:06:02;;;;;;;19.40;14.20;;;17.00;64.40;;;;;;5092582;28;20196;-73
2021/03/24 08:08:42;;;;;;;20.40;14.77;;;15.80;67.10;;;;;;5092488;28;20224;-70
2021/03/24 08:11:21;;;;;;;18.83;14.00;;;14.60;69.70;;;;;;5092022;28;20208;-70
2021/03/24 08:14:03;;;;;;;20.67;14.27;;;13.60;72.50;;;;;;5092332;28;20208;-70
2021/03/24 08:16:51;;;;;;;18.37;14.30;;;12.80;74.90;;;;;;5092393;28;20227;-70
2021/03/24 08:19:45;;;;;;;19.63;14.97;;;12.30;76.70;;;;;;5092219;28;20594;-70
2021/03/24 08:22:46;;;;;;;20.37;15.00;;;11.70;79.10;;;;;;5092349;28;20599;-71
2021/03/24 08:25:36;;;;;;;20.67;14.53;;;11.10;81.50;;;;;;5091901;28;20208;-70
2021/03/24 08:28:09;;;;;;;19.90;13.93;;;10.40;84.10;;;;;;5091938;28;20712;-71
2021/03/24 08:30:49;;;;;;;19.83;14.33;;;10.20;86.10;;;;;;5092350;28;20359;-70
2021/03/24 08:33:42;;;;;;;20.07;14.73;;;10.00;86.50;;;;;;5092010;28;20357;-70
2021/03/24 08:36:17;;;;;;;21.30;14.37;;;9.90;88.10;;;;;;5092037;28;20234;-70
2021/03/24 08:39:22;;;;;;;23.13;14.13;;;9.80;89.30;;;;;;5091854;28;20228;-70
2021/03/24 08:42:27;;;;;;;19.57;13.60;;;9.50;90.20;;;;;;5080987;28;20265;-70
2021/03/24 08:44:59;;;;;;;17.70;12.17;;;9.50;90.70;;;;;;5091563;28;20208;-70
2021/03/24 08:47:29;;;;;;;17.67;13.23;;;9.60;90.80;;;;;;5106470;22;20268;-61
2021/03/24 08:49:58;;;;;;;19.73;12.93;;;9.80;90.70;;;;;;5070872;28;20230;-61
2021/03/24 08:52:32;;;;;;;17.47;13.30;;;10.10;90.20;;;;;;5070606;28;20266;-61
2021/03/24 08:55:20;;;;;;;18.77;13.73;;;10.30;89.50;;;;;;5070825;28;20216;-61
2021/03/24 08:58:14;;;;;;;18.80;12.60;;;10.40;89.00;;;;;;5070610;28;20232;-61
2021/03/24 09:00:51;;;;;;;19.40;13.43;;;10.50;89.00;;;;;;5065428;28;20208;-61
2021/03/24 09:03:42;;;;;;;21.03;13.60;;;10.60;90.00;;;;;;5070824;28;20207;-61
2021/03/24 09:06:16;;;;;;;17.73;13.17;;;10.80;89.20;;;;;;5070973;28;20684;-61
2021/03/24 09:08:49;;;;;;;21.67;13.50;;;11.10;89.30;;;;;;5070779;28;20626;-60
2021/03/24 09:11:33;;;;;;;18.80;14.20;;;11.30;88.50;;;;;;5070986;28;20205;-60
2021/03/24 09:14:09;;;;;;;19.63;13.63;;;11.30;88.50;;;;;;5070698;28;20308;-61
2021/03/24 09:17:16;;;;;;;18.57;12.70;;;11.40;87.80;;;;;;5070357;28;20695;-62
2021/03/24 09:20:20;;;;;;;20.07;13.40;;;11.40;87.40;;;;;;5070624;28;20223;-65
2021/03/24 09:22:59;;;;;;;16.03;12.10;;;11.30;88.40;;;;;;5071072;28;20200;-64
2021/03/24 09:25:27;;;;;;;20.60;14.43;;;11.40;88.00;;;;;;5070733;28;20201;-64
2021/03/24 09:28:30;;;;;;;20.30;14.70;;;11.50;88.30;;;;;;5070396;28;20236;-64
2021/03/24 09:31:17;;;;;;;17.80;12.73;;;11.70;88.00;;;;;;5070534;28;20274;-64
2021/03/24 09:33:56;;;;;;;17.50;12.53;;;11.80;87.40;;;;;;5070316;28;20331;-64
2021/03/24 09:36:39;;;;;;;21.60;15.43;;;11.80;86.80;;;;;;5071312;28;20726;-63
2021/03/24 09:39:17;;;;;;;18.53;13.93;;;11.80;88.00;;;;;;5074214;28;20221;-64
2021/03/24 09:41:52;;;;;;;20.13;13.40;;;11.70;88.00;;;;;;5074339;28;20771;-64
2021/03/24 09:44:24;;;;;;;137.53;92.60;;;11.90;87.70;;;;;;5074351;28;20212;-64
2021/03/24 09:46:54;;;;;;;20.23;13.43;;;12.00;87.70;;;;;;5073958;28;20212;-64
2021/03/24 09:49:25;;;;;;;17.80;12.97;;;12.20;86.90;;;;;;5073665;28;20293;-64
2021/03/24 09:52:15;;;;;;;18.67;12.70;;;12.30;86.00;;;;;;5074158;28;20209;-63
2021/03/24 09:55:16;;;;;;;19.80;13.63;;;12.30;86.50;;;;;;5073796;28;20225;-64
2021/03/24 09:58:07;;;;;;;17.47;11.97;;;12.40;85.60;;;;;;5073393;28;20229;-63
2021/03/24 10:00:39;;;;;;;17.23;11.93;;;12.40;85.20;;;;;;5073738;28;20294;-63
2021/03/24 10:03:15;;;;;;;20.97;13.37;;;12.40;85.50;;;;;;5073717;28;20204;-63
2021/03/24 10:05:50;;;;;;;17.53;11.80;;;12.40;86.00;;;;;;5073562;28;20235;-63
2021/03/24 10:08:25;;;;;;;19.30;12.77;;;12.60;85.30;;;;;;5073732;28;20224;-64
2021/03/24 10:10:58;;;;;;;16.80;11.47;;;12.90;84.70;;;;;;5073552;28;20211;-66
2021/03/24 10:13:26;;;;;;;16.80;11.73;;;13.10;83.90;;;;;;5073736;28;20248;-64
2021/03/24 10:15:59;;;;;;;15.67;11.33;;;13.20;83.20;;;;;;5073529;28;20221;-64
2021/03/24 10:18:32;;;;;;;16.40;11.03;;;13.30;82.70;;;;;;5073263;28;20228;-64
2021/03/24 10:21:05;;;;;;;20.20;12.40;;;13.50;82.60;;;;;;5073710;28;20679;-63
2021/03/24 10:23:39;;;;;;;16.47;11.50;;;13.60;81.80;;;;;;5073702;28;20207;-64
2021/03/24 10:26:14;;;;;;;16.00;11.73;;;13.70;81.10;;;;;;5073395;28;20243;-64
2021/03/24 10:28:48;;;;;;;16.00;11.40;;;13.80;81.20;;;;;;5073178;28;20602;-63
2021/03/24 10:31:19;;;;;;;16.30;11.73;;;14.00;81.10;;;;;;5073315;28;20262;-64
2021/03/24 10:33:51;;;;;;;13.97;10.63;;;14.00;80.30;;;;;;5073214;28;20208;-62
2021/03/24 10:36:26;;;;;;;16.80;12.07;;;14.10;79.80;;;;;;5073054;28;20704;-62
2021/03/24 10:38:59;;;;;;;17.87;11.50;;;14.20;80.30;;;;;;5072830;28;20419;-62
2021/03/24 10:41:52;;;;;;;17.00;12.07;;;14.10;79.80;;;;;;5073163;28;20205;-62
2021/03/24 10:44:24;;;;;;;17.17;11.27;;;14.10;80.00;;;;;;5071393;28;20288;-62
2021/03/24 10:47:15;;;;;;;15.53;10.97;;;14.10;80.10;;;;;;5072879;28;20205;-61
2021/03/24 10:49:50;;;;;;;17.43;11.00;;;14.10;79.60;;;;;;5070175;28;20212;-62
2021/03/24 10:52:20;;;;;;;15.37;11.07;;;14.30;78.70;;;;;;5072905;28;20205;-62
2021/03/24 10:54:56;;;;;;;14.40;10.33;;;14.40;78.60;;;;;;5072834;28;20224;-63
2021/03/24 10:57:44;;;;;;;16.27;11.57;;;14.50;78.00;;;;;;5072642;28;20265;-63
2021/03/24 11:00:21;;;;;;;18.07;11.10;;;14.50;79.10;;;;;;5072490;28;20616;-62
2021/03/24 11:02:53;;;;;;;16.37;10.43;;;14.60;78.50;;;;;;5072415;28;20220;-62
2021/03/24 11:05:27;;;;;;;15.47;10.70;;;14.70;78.30;;;;;;5072427;28;20197;-62
2021/03/24 11:08:00;;;;;;;14.00;10.70;;;14.60;78.70;;;;;;5072861;28;20275;-62
2021/03/24 11:10:46;;;;;;;15.93;11.33;;;14.60;78.10;;;;;;5072822;28;20201;-63
2021/03/24 11:13:22;;;;;;;16.40;11.57;;;14.60;79.70;;;;;;5072806;28;20237;-63
2021/03/24 11:16:06;;;;;;;16.47;12.07;;;14.70;79.80;;;;;;5072329;28;20668;-63
2021/03/24 11:18:39;;;;;;;15.63;10.83;;;14.60;80.10;;;;;;5072355;28;20231;-63
2021/03/24 11:21:20;;;;;;;16.30;10.87;;;14.60;79.80;;;;;;5072216;28;20731;-63
2021/03/24 11:23:51;;;;;;;17.17;10.83;;;14.50;80.80;;;;;;5072255;28;20215;-64
2021/03/24 11:26:50;;;;;;;16.53;11.00;;;14.50;79.50;;;;;;5072250;28;20343;-63
2021/03/24 11:29:22;;;;;;;16.40;10.23;;;14.60;79.70;;;;;;5058172;28;20224;-63
2021/03/24 11:32:02;;;;;;;14.27;11.07;;;14.50;79.90;;;;;;5072133;28;20209;-64
2021/03/24 11:34:37;;;;;;;18.43;11.57;;;14.40;79.70;;;;;;5072115;28;20205;-63
2021/03/24 11:37:12;;;;;;;16.80;11.53;;;14.40;79.90;;;;;;5072034;28;20201;-64
2021/03/24 11:39:46;;;;;;;16.67;11.63;;;14.60;79.70;;;;;;5071764;28;20208;-63
2021/03/24 11:42:15;;;;;;;14.57;11.20;;;14.80;79.30;;;;;;5071746;28;20627;-63
2021/03/24 11:44:44;;;;;;;17.40;10.97;;;15.00;78.60;;;;;;5071319;28;20253;-64
2021/03/24 11:47:33;;;;;;;14.40;10.70;;;15.00;78.20;;;;;;5071351;28;20676;-63
2021/03/24 11:50:06;;;;;;;14.63;10.10;;;15.00;78.00;;;;;;5071761;28;20208;-63
2021/03/24 11:52:58;;;;;;;12.70;9.83;;;15.00;77.70;;;;;;5071549;28;20209;-63
2021/03/24 11:55:40;;;;;;;16.00;10.43;;;14.90;76.80;;;;;;5069165;28;20723;-63
2021/03/24 11:58:17;;;;;;;15.80;10.77;;;14.80;77.50;;;;;;5071337;28;20500;-63
2021/03/24 12:00:55;;;;;;;15.03;10.77;;;14.90;76.50;;;;;;5070989;28;20215;-63
2021/03/24 12:03:45;;;;;;;16.17;10.40;;;15.00;76.60;;;;;;5071834;28;20590;-63
2021/03/24 12:06:22;;;;;;;13.90;10.33;;;15.20;75.20;;;;;;5071468;28;20660;-63
2021/03/24 12:08:54;;;;;;;12.80;9.77;;;15.40;75.10;;;;;;5071193;28;20225;-63
2021/03/24 12:11:23;;;;;;;14.70;10.60;;;15.40;75.40;;;;;;5071664;28;20209;-63
2021/03/24 12:13:50;;;;;;;14.80;10.30;;;15.50;75.50;;;;;;5071106;28;20638;-63
2021/03/24 12:16:19;;;;;;;14.93;10.77;;;15.70;74.70;;;;;;5071185;28;20228;-63
2021/03/24 12:18:48;;;;;;;14.30;10.57;;;15.70;73.80;;;;;;5071093;28;20590;-62
2021/03/24 12:21:23;;;;;;;14.13;10.60;;;15.70;74.10;;;;;;5071163;28;20212;-63
2021/03/24 12:23:53;;;;;;;15.73;10.10;;;15.60;73.10;;;;;;5071143;28;20208;-63
2021/03/24 12:26:35;;;;;;;12.40;9.53;;;15.70;72.30;;;;;;5071159;28;20212;-63
2021/03/24 12:29:07;;;;;;;17.57;10.57;;;15.80;73.20;;;;;;5070954;28;20221;-63
2021/03/24 12:31:45;;;;;;;13.35;9.90;;;15.90;72.60;;;;;;5070421;28;20446;-63
2021/03/24 12:34:15;;;;;;;12.87;9.63;;;16.00;72.20;;;;;;5068312;28;20212;-62
2021/03/24 12:36:49;;;;;;;14.30;9.00;;;15.90;73.00;;;;;;5070912;28;20285;-62
2021/03/24 12:39:27;;;;;;;16.90;9.10;;;15.90;71.10;;;;;;5071011;28;20220;-62
2021/03/24 12:41:53;;;;;;;12.53;9.33;;;15.90;71.10;;;;;;5070802;28;20265;-61
2021/03/24 12:44:25;;;;;;;12.03;8.80;;;15.80;71.70;;;;;;5070681;28;20204;-61
2021/03/24 12:46:56;;;;;;;12.70;9.10;;;15.80;72.00;;;;;;5071487;28;20201;-62
2021/03/24 12:49:26;;;;;;;11.43;9.47;;;15.90;71.60;;;;;;5071202;28;20232;-62
2021/03/24 12:52:06;;;;;;;13.10;9.63;;;16.00;70.60;;;;;;5071858;28;20204;-62
2021/03/24 12:54:33;;;;;;;13.00;9.33;;;16.10;69.50;;;;;;5070732;28;20208;-62
2021/03/24 12:57:33;;;;;;;11.27;8.90;;;16.30;69.20;;;;;;5070967;28;20224;-63
2021/03/24 13:00:21;;;;;;;12.77;8.63;;;16.40;67.70;;;;;;5053915;28;20252;-61
2021/03/24 13:03:15;;;;;;;12.67;8.40;;;16.40;67.70;;;;;;5050176;28;20613;-62
2021/03/24 13:05:43;;;;;;;12.73;8.50;;;16.30;68.10;;;;;;5047234;28;20206;-61
2021/03/24 13:08:17;;;;;;;11.67;9.07;;;16.20;69.10;;;;;;5050303;28;20692;-62
2021/03/24 13:10:50;;;;;;;16.67;13.60;;;16.30;68.60;;;;;;5051484;28;20206;-62
2021/03/24 13:13:26;;;;;;;11.57;9.63;;;16.30;68.90;;;;;;5054443;28;20674;-63
2021/03/24 13:15:58;;;;;;;11.17;8.80;;;16.30;68.00;;;;;;5053660;28;20240;-62
2021/03/24 13:18:31;;;;;;;12.80;8.60;;;16.40;67.40;;;;;;5055161;28;20717;-64